Time;durP1;ratioP1;P1;durP2;ratioP2;P2;SDS_P1;SDS_P2;PMS_P1;PMS_P2;Temp;Humidity;BMP_temperature;BMP_pressure;BME280_temperature;BME280_humidity;BME280_pressure;Samples;Min_cycle;Max_cycle;Signal;HPM_P1;HPM_P2
2023/08/17 00:00:13;;;;;;;1999.90;999.90;;;14.70;99.90;;;;;;5069188;28;20472;-71
2023/08/17 00:02:39;;;;;;;1999.90;999.90;;;14.70;99.90;;;;;;5065098;28;20044;-70
2023/08/17 00:05:06;;;;;;;1999.90;999.90;;;14.70;99.90;;;;;;5095400;28;20091;-70
2023/08/17 00:07:32;;;;;;;1999.90;999.90;;;14.60;99.90;;;;;;5088083;28;20052;-70
2023/08/17 00:09:58;;;;;;;1999.90;999.90;;;14.70;99.90;;;;;;5084884;28;20097;-70
2023/08/17 00:12:23;;;;;;;1999.90;999.90;;;14.70;99.90;;;;;;5092048;28;20074;-70
2023/08/17 00:14:49;;;;;;;1999.90;999.90;;;14.70;99.90;;;;;;5078795;28;20090;-70
2023/08/17 00:17:14;;;;;;;1999.90;999.90;;;14.70;99.90;;;;;;5098592;28;20100;-70
2023/08/17 00:19:40;;;;;;;1999.90;999.90;;;14.70;99.90;;;;;;5083796;28;20105;-70
2023/08/17 00:22:06;;;;;;;1999.90;999.90;;;14.70;99.90;;;;;;5099325;28;20468;-71
2023/08/17 00:24:31;;;;;;;1999.90;999.90;;;14.70;99.90;;;;;;5081411;28;20130;-70
2023/08/17 00:26:57;;;;;;;1999.90;999.90;;;14.70;99.90;;;;;;5086136;28;20403;-70
2023/08/17 00:29:22;;;;;;;1999.90;999.90;;;14.70;99.90;;;;;;5068921;28;20043;-71
2023/08/17 00:31:48;;;;;;;1999.90;999.90;;;14.70;99.90;;;;;;5086078;28;20539;-71
2023/08/17 00:34:14;;;;;;;1999.90;999.90;;;14.80;99.90;;;;;;5086747;28;20114;-71
2023/08/17 00:36:39;;;;;;;1999.90;999.90;;;14.80;99.90;;;;;;5068829;28;20044;-71
2023/08/17 00:39:05;;;;;;;1999.90;999.90;;;14.80;99.90;;;;;;5078167;28;20132;-70
2023/08/17 00:41:30;;;;;;;1999.90;999.90;;;14.80;99.90;;;;;;5068551;28;20044;-70
2023/08/17 00:43:56;;;;;;;1999.90;999.90;;;14.90;99.90;;;;;;5103117;28;20040;-70
2023/08/17 00:46:23;;;;;;;1999.90;999.90;;;14.90;99.90;;;;;;5078531;28;20548;-70
2023/08/17 00:48:49;;;;;;;1999.90;999.90;;;14.90;99.90;;;;;;5085044;28;20040;-70
2023/08/17 00:51:14;;;;;;;1999.90;999.90;;;14.90;99.90;;;;;;5085392;28;20043;-71
2023/08/17 00:53:41;;;;;;;1999.90;999.90;;;14.90;99.90;;;;;;5080337;28;20059;-71
2023/08/17 00:56:08;;;;;;;1999.90;999.90;;;14.80;99.90;;;;;;5083561;28;20046;-71
2023/08/17 00:58:34;;;;;;;1999.90;999.90;;;14.80;99.90;;;;;;5068977;28;20044;-70
2023/08/17 01:01:00;;;;;;;1999.90;999.90;;;14.70;99.90;;;;;;5084987;28;20048;-71
2023/08/17 01:03:29;;;;;;;1999.90;999.90;;;14.60;99.90;;;;;;5086002;28;20549;-70
2023/08/17 01:05:56;;;;;;;1999.90;999.90;;;14.50;99.90;;;;;;5084776;28;20090;-71
2023/08/17 01:08:21;;;;;;;1999.90;999.90;;;14.50;99.90;;;;;;5086389;28;20093;-71
2023/08/17 01:11:02;;;;;;;1999.90;999.90;;;14.40;99.90;;;;;;5097911;28;20843;-70
2023/08/17 01:13:55;;;;;;;1999.90;999.90;;;14.40;99.90;;;;;;5092245;28;20056;-71
2023/08/17 01:16:36;;;;;;;1999.90;999.90;;;14.30;99.90;;;;;;5077233;28;20052;-70
2023/08/17 01:19:08;;;;;;;1999.90;999.90;;;14.30;99.90;;;;;;5083300;28;20043;-71
2023/08/17 01:21:44;;;;;;;1999.90;999.90;;;14.20;99.90;;;;;;5087072;28;20056;-71
2023/08/17 01:24:11;;;;;;;1999.90;999.90;;;14.20;99.90;;;;;;5085675;28;20055;-70
2023/08/17 01:26:37;;;;;;;1999.90;999.90;;;14.10;99.90;;;;;;5084329;28;20446;-71
2023/08/17 01:29:02;;;;;;;1999.90;999.90;;;14.10;99.90;;;;;;5067348;28;20048;-70
2023/08/17 01:31:44;;;;;;;1999.90;999.90;;;14.00;99.90;;;;;;5072438;28;20043;-71
2023/08/17 01:34:18;;;;;;;1999.90;999.90;;;14.00;99.90;;;;;;5068609;28;20571;-71
2023/08/17 01:36:50;;;;;;;1999.90;999.90;;;13.90;99.90;;;;;;5087563;28;20118;-71
2023/08/17 01:39:16;;;;;;;1999.90;999.90;;;13.90;99.90;;;;;;5081856;28;20067;-70
2023/08/17 01:41:45;;;;;;;1999.90;999.90;;;13.90;99.90;;;;;;5090499;28;20039;-70
2023/08/17 01:44:10;;;;;;;1999.90;999.90;;;13.90;99.90;;;;;;5087408;28;20044;-70
2023/08/17 01:46:37;;;;;;;1999.90;999.90;;;13.90;99.90;;;;;;5089275;28;20098;-71
2023/08/17 01:49:03;;;;;;;1999.90;999.90;;;13.90;99.90;;;;;;5085624;28;20044;-71
2023/08/17 01:51:29;;;;;;;1999.90;999.90;;;13.80;99.90;;;;;;5090536;28;20131;-70
2023/08/17 01:53:54;;;;;;;1999.90;999.90;;;13.80;99.90;;;;;;5092144;28;20093;-70
2023/08/17 01:56:20;;;;;;;1999.90;999.90;;;13.80;99.90;;;;;;5071066;28;20556;-71
2023/08/17 01:58:45;;;;;;;1999.90;999.90;;;13.80;99.90;;;;;;5071237;28;20067;-71
2023/08/17 02:01:11;;;;;;;1999.90;999.90;;;13.70;99.90;;;;;;5091383;28;20067;-70
2023/08/17 02:03:37;;;;;;;1999.90;999.90;;;13.70;99.90;;;;;;5089073;28;20036;-70
2023/08/17 02:06:02;;;;;;;1999.90;999.90;;;13.70;99.90;;;;;;5087985;28;20416;-70
2023/08/17 02:08:28;;;;;;;1999.90;999.90;;;13.60;99.90;;;;;;5089881;28;20048;-70
2023/08/17 02:10:54;;;;;;;1999.90;999.90;;;13.60;99.90;;;;;;5068077;28;20071;-71
2023/08/17 02:13:19;;;;;;;1999.90;999.90;;;13.60;99.90;;;;;;5086064;28;20028;-70
2023/08/17 02:15:46;;;;;;;1999.90;999.90;;;13.60;99.90;;;;;;5094400;28;20045;-70
2023/08/17 02:18:12;;;;;;;1999.90;999.90;;;13.50;99.90;;;;;;5087886;28;20721;-70
2023/08/17 02:20:37;;;;;;;1999.90;999.90;;;13.50;99.90;;;;;;5082871;28;20043;-71
2023/08/17 02:23:03;;;;;;;1999.90;999.90;;;13.50;99.90;;;;;;5084912;28;20039;-71
2023/08/17 02:25:35;;;;;;;1999.90;999.90;;;13.50;99.90;;;;;;5070727;28;20617;-71
2023/08/17 02:28:04;;;;;;;1999.90;999.90;;;13.50;99.90;;;;;;5085882;28;20083;-71
2023/08/17 02:30:29;;;;;;;1999.90;999.90;;;13.50;99.90;;;;;;5087744;28;20044;-70
2023/08/17 02:32:55;;;;;;;1999.90;999.90;;;13.50;99.90;;;;;;5072818;28;20384;-70
2023/08/17 02:35:21;;;;;;;1999.90;999.90;;;13.50;99.90;;;;;;5087353;28;20109;-70
2023/08/17 02:37:46;;;;;;;1999.90;999.90;;;13.40;99.90;;;;;;5104224;28;20036;-70
2023/08/17 02:40:12;;;;;;;1999.90;999.90;;;13.40;99.90;;;;;;5105457;28;20040;-70
2023/08/17 02:42:39;;;;;;;1999.90;999.90;;;13.40;99.90;;;;;;5088246;28;20067;-70
2023/08/17 02:45:06;;;;;;;1999.90;999.90;;;13.30;99.90;;;;;;5082050;28;20159;-70
2023/08/17 02:47:32;;;;;;;1999.90;999.90;;;13.30;99.90;;;;;;5087853;28;20056;-71
2023/08/17 02:49:58;;;;;;;1999.90;999.90;;;13.30;99.90;;;;;;5087902;28;20054;-71
2023/08/17 02:52:23;;;;;;;1999.90;999.90;;;13.30;99.90;;;;;;5074767;28;20044;-70
2023/08/17 02:54:49;;;;;;;1999.90;999.90;;;13.30;99.90;;;;;;5086670;28;20090;-70
2023/08/17 02:57:14;;;;;;;1999.90;999.90;;;13.30;99.90;;;;;;5088160;28;20563;-71
2023/08/17 02:59:40;;;;;;;1999.90;999.90;;;13.30;99.90;;;;;;5088081;28;20047;-71
2023/08/17 03:02:05;;;;;;;1999.90;999.90;;;13.30;99.90;;;;;;5085162;28;20047;-70
2023/08/17 03:04:32;;;;;;;1999.90;999.90;;;13.30;99.90;;;;;;5086518;28;20143;-70
2023/08/17 03:06:58;;;;;;;1999.90;999.90;;;13.30;99.90;;;;;;5088754;28;20158;-71
2023/08/17 03:09:23;;;;;;;1999.90;999.90;;;13.40;99.90;;;;;;5070105;28;20123;-70
2023/08/17 03:11:49;;;;;;;1999.90;999.90;;;13.40;99.90;;;;;;5087330;28;20488;-70
2023/08/17 03:14:15;;;;;;;1999.90;999.90;;;13.50;99.90;;;;;;5075371;28;20036;-70
2023/08/17 03:16:40;;;;;;;1999.90;999.90;;;13.60;99.90;;;;;;5084813;28;20040;-71
2023/08/17 03:19:07;;;;;;;1999.90;999.90;;;13.60;99.90;;;;;;5102300;28;20040;-71
2023/08/17 03:21:34;;;;;;;1999.90;999.90;;;13.70;99.90;;;;;;5087589;28;20036;-70
2023/08/17 03:23:59;;;;;;;1999.90;999.90;;;13.70;99.90;;;;;;5085076;28;20059;-70
2023/08/17 03:26:25;;;;;;;1999.90;999.90;;;13.80;99.90;;;;;;5090274;28;20407;-70
2023/08/17 03:28:50;;;;;;;1999.90;999.90;;;13.80;99.90;;;;;;5085607;28;20040;-70
2023/08/17 03:31:16;;;;;;;1999.90;999.90;;;13.80;99.90;;;;;;5087485;28;20682;-71
2023/08/17 03:33:41;;;;;;;1999.90;999.90;;;13.80;99.90;;;;;;5099719;28;20041;-70
2023/08/17 03:36:07;;;;;;;1999.90;999.90;;;13.90;99.90;;;;;;5080401;28;20067;-70
2023/08/17 03:38:33;;;;;;;1999.90;999.90;;;13.80;99.90;;;;;;5087414;28;20055;-70
2023/08/17 03:40:58;;;;;;;1999.90;999.90;;;13.80;99.90;;;;;;5085255;28;20044;-70
2023/08/17 03:43:26;;;;;;;1999.90;999.90;;;13.80;99.90;;;;;;5086640;28;20454;-71
2023/08/17 03:45:51;;;;;;;1999.90;999.90;;;13.80;99.90;;;;;;5084438;28;20048;-70
2023/08/17 03:48:17;;;;;;;1999.90;999.90;;;13.80;99.90;;;;;;5087648;28;20124;-71
2023/08/17 03:50:43;;;;;;;1999.90;999.90;;;13.70;99.90;;;;;;5081803;28;20051;-70
2023/08/17 03:53:08;;;;;;;1999.90;999.90;;;13.70;99.90;;;;;;5069920;28;20052;-70
2023/08/17 03:55:34;;;;;;;1999.90;999.90;;;13.70;99.90;;;;;;5084809;28;20040;-70
2023/08/17 03:58:00;;;;;;;1999.90;999.90;;;13.70;99.90;;;;;;5087439;28;20067;-70
2023/08/17 04:00:25;;;;;;;1999.90;999.90;;;13.70;99.90;;;;;;5086926;28;20415;-70
2023/08/17 04:02:51;;;;;;;1999.90;999.90;;;13.70;99.90;;;;;;5082158;28;20040;-71
2023/08/17 04:05:16;;;;;;;1999.90;999.90;;;13.70;99.90;;;;;;5069442;28;20071;-70
2023/08/17 04:07:42;;;;;;;1999.90;999.90;;;13.70;99.90;;;;;;5103621;28;20840;-70
2023/08/17 04:10:08;;;;;;;1999.90;999.90;;;13.70;99.90;;;;;;5103991;28;20056;-70
2023/08/17 04:12:34;;;;;;;1999.90;999.90;;;13.70;99.90;;;;;;5081037;28;20061;-70
2023/08/17 04:15:00;;;;;;;1999.90;999.90;;;13.70;99.90;;;;;;5061593;28;20203;-70
2023/08/17 04:17:25;;;;;;;1999.90;999.90;;;13.70;99.90;;;;;;5084055;28;20040;-70
2023/08/17 04:19:51;;;;;;;1999.90;999.90;;;13.70;99.90;;;;;;5103041;28;20051;-71
2023/08/17 04:22:17;;;;;;;1999.90;999.90;;;13.60;99.90;;;;;;5086624;28;20094;-70
2023/08/17 04:24:42;;;;;;;1999.90;999.90;;;13.60;99.90;;;;;;5068529;28;20409;-70
2023/08/17 04:27:08;;;;;;;1999.90;999.90;;;13.60;99.90;;;;;;5098849;28;20032;-71
2023/08/17 04:29:34;;;;;;;1999.90;999.90;;;13.60;99.90;;;;;;5078762;28;20044;-70
2023/08/17 04:32:00;;;;;;;1999.90;999.90;;;13.60;99.90;;;;;;5079092;28;20043;-71
2023/08/17 04:34:25;;;;;;;1999.90;999.90;;;13.60;99.90;;;;;;5068840;28;20047;-71
2023/08/17 04:36:51;;;;;;;1999.90;999.90;;;13.60;99.90;;;;;;5084077;28;20028;-70
2023/08/17 04:39:17;;;;;;;1999.90;999.90;;;13.60;99.90;;;;;;5089594;28;20044;-70
2023/08/17 04:41:43;;;;;;;1999.90;999.90;;;13.60;99.90;;;;;;5068742;28;20036;-71
2023/08/17 04:44:08;;;;;;;1999.90;999.90;;;13.60;99.90;;;;;;5069043;28;20484;-70
2023/08/17 04:46:35;;;;;;;1999.90;999.90;;;13.60;99.90;;;;;;5093041;28;20052;-70
2023/08/17 04:49:01;;;;;;;1999.90;999.90;;;13.60;99.90;;;;;;5084530;28;20040;-70
2023/08/17 04:51:26;;;;;;;1999.90;999.90;;;13.60;99.90;;;;;;5098737;28;21011;-71
2023/08/17 04:53:52;;;;;;;1999.90;999.90;;;13.60;99.90;;;;;;5069239;28;20036;-70
2023/08/17 04:56:18;;;;;;;1999.90;999.90;;;13.60;99.90;;;;;;5070148;28;20731;-70
2023/08/17 04:58:44;;;;;;;1999.90;999.90;;;13.60;99.90;;;;;;5068207;28;20048;-70
2023/08/17 05:01:10;;;;;;;1999.90;999.90;;;13.60;99.90;;;;;;5084294;28;20055;-70
2023/08/17 05:03:35;;;;;;;1999.90;999.90;;;13.60;99.90;;;;;;5086155;28;20062;-70
2023/08/17 05:06:01;;;;;;;1999.90;999.90;;;13.60;99.90;;;;;;5064162;28;20048;-71
2023/08/17 05:08:27;;;;;;;1999.90;999.90;;;13.60;99.90;;;;;;5087743;28;20041;-70
2023/08/17 05:10:52;;;;;;;1999.90;999.90;;;13.60;99.90;;;;;;5085611;28;20624;-70
2023/08/17 05:13:18;;;;;;;1999.90;999.90;;;13.70;99.90;;;;;;5085488;28;20567;-70
2023/08/17 05:15:44;;;;;;;1999.90;999.90;;;13.70;99.90;;;;;;5088791;28;20408;-71
2023/08/17 05:18:10;;;;;;;1999.90;999.90;;;13.70;99.90;;;;;;5101402;28;20028;-70
2023/08/17 05:20:36;;;;;;;1999.90;999.90;;;13.80;99.90;;;;;;5100175;27;20069;-70
2023/08/17 05:23:01;;;;;;;1999.90;999.90;;;13.80;99.90;;;;;;5088562;28;20093;-71
2023/08/17 05:25:29;;;;;;;1999.90;999.90;;;13.90;99.90;;;;;;5088877;28;20523;-70
2023/08/17 05:27:55;;;;;;;1999.90;999.90;;;14.00;99.90;;;;;;5107490;28;20062;-70
2023/08/17 05:30:20;;;;;;;1999.90;999.90;;;14.10;99.90;;;;;;5087853;28;20043;-70
2023/08/17 05:32:46;;;;;;;1999.90;999.90;;;14.10;99.90;;;;;;5090600;28;20048;-70
2023/08/17 05:35:12;;;;;;;1999.90;999.90;;;14.20;99.90;;;;;;5085066;28;20047;-71
2023/08/17 05:37:37;;;;;;;1999.90;999.90;;;14.30;99.90;;;;;;5072991;28;20453;-70
2023/08/17 05:40:04;;;;;;;1999.90;999.90;;;14.40;99.90;;;;;;5089063;28;20046;-70
2023/08/17 05:42:30;;;;;;;1999.90;999.90;;;14.60;99.90;;;;;;5100661;28;20045;-70
2023/08/17 05:44:56;;;;;;;1999.90;999.90;;;14.90;99.90;;;;;;5089636;28;20058;-70
2023/08/17 05:47:21;;;;;;;1999.90;999.90;;;15.10;99.90;;;;;;5103296;28;20036;-70
2023/08/17 05:49:47;;;;;;;1999.90;999.90;;;15.20;99.90;;;;;;5087398;28;20032;-70
2023/08/17 05:52:13;;;;;;;1999.90;999.90;;;15.10;99.90;;;;;;5071985;28;20032;-70
2023/08/17 05:54:39;;;;;;;1999.90;999.90;;;15.20;99.90;;;;;;5087529;28;20057;-70
2023/08/17 05:57:04;;;;;;;1999.90;999.90;;;15.20;99.90;;;;;;5089883;28;20541;-71
2023/08/17 05:59:30;;;;;;;1999.90;999.90;;;15.30;99.90;;;;;;5089204;28;20032;-70
2023/08/17 06:01:56;;;;;;;1999.90;999.90;;;15.30;99.90;;;;;;5075304;28;20039;-70
2023/08/17 06:04:21;;;;;;;1999.90;999.90;;;15.30;99.90;;;;;;5100980;28;20064;-70
2023/08/17 06:06:47;;;;;;;1999.90;999.90;;;15.40;99.90;;;;;;5071059;28;20055;-70
2023/08/17 06:09:14;;;;;;;1999.90;999.90;;;15.50;99.90;;;;;;5088285;28;20449;-71
2023/08/17 06:11:40;;;;;;;1999.90;999.90;;;15.60;99.90;;;;;;5100965;28;20044;-71
2023/08/17 06:14:05;;;;;;;1999.90;999.90;;;15.60;99.90;;;;;;5060723;28;20051;-71
2023/08/17 06:16:31;;;;;;;1999.90;999.90;;;15.70;99.90;;;;;;5088366;28;20488;-71
2023/08/17 06:18:57;;;;;;;1999.90;999.90;;;15.90;99.90;;;;;;5085312;28;20897;-71
2023/08/17 06:21:22;;;;;;;1999.90;999.90;;;16.00;99.90;;;;;;5084701;28;20052;-71
2023/08/17 06:23:48;;;;;;;1999.90;999.90;;;16.10;99.90;;;;;;5088879;28;20040;-71
2023/08/17 06:26:14;;;;;;;1999.90;999.90;;;16.30;99.90;;;;;;5099509;28;20116;-71
2023/08/17 06:28:39;;;;;;;1999.90;999.90;;;16.60;99.90;;;;;;5088779;28;20047;-71
2023/08/17 06:31:05;;;;;;;1999.90;999.90;;;16.70;99.90;;;;;;5089411;28;20577;-71
2023/08/17 06:33:30;;;;;;;1999.90;999.90;;;16.90;99.90;;;;;;5089168;28;20036;-71
2023/08/17 06:35:56;;;;;;;1999.90;999.90;;;17.00;99.90;;;;;;5087761;28;20044;-71
2023/08/17 06:38:22;;;;;;;1999.90;999.90;;;17.30;99.90;;;;;;5087132;28;20051;-71
2023/08/17 06:40:47;;;;;;;1999.90;999.90;;;17.40;99.90;;;;;;5103036;28;20040;-71
2023/08/17 06:43:13;;;;;;;1999.90;999.90;;;17.50;99.90;;;;;;5071246;28;20036;-71
2023/08/17 06:45:39;;;;;;;1999.90;999.90;;;17.50;99.90;;;;;;5078328;28;20396;-71
2023/08/17 06:48:05;;;;;;;1999.90;999.90;;;17.60;99.90;;;;;;5105143;28;20036;-71
2023/08/17 06:50:31;;;;;;;1999.90;999.90;;;17.60;99.90;;;;;;5083546;28;20035;-71
2023/08/17 06:52:56;;;;;;;1999.90;999.90;;;17.70;99.90;;;;;;5072463;28;20105;-71
2023/08/17 06:55:22;;;;;;;1999.90;999.90;;;17.70;99.90;;;;;;5090880;28;20047;-71
2023/08/17 06:57:51;;;;;;;1999.90;999.90;;;17.60;99.90;;;;;;5102809;28;20058;-71
2023/08/17 07:00:20;;;;;;;1999.90;999.90;;;17.60;99.90;;;;;;5080296;28;20040;-71
2023/08/17 07:02:50;;;;;;;1999.90;999.90;;;17.60;99.90;;;;;;5088770;28;20121;-71
2023/08/17 07:05:16;;;;;;;1999.90;999.90;;;17.60;99.90;;;;;;5042574;28;1064370;-71
2023/08/17 07:07:45;;;;;;;1999.90;999.90;;;17.70;99.90;;;;;;5090101;28;20036;-71
2023/08/17 07:10:10;;;;;;;1999.90;999.90;;;17.70;99.90;;;;;;5088605;28;20086;-72
2023/08/17 07:12:40;;;;;;;1999.90;999.90;;;17.80;99.90;;;;;;5072937;28;20078;-72
2023/08/17 07:15:07;;;;;;;1999.90;999.90;;;17.80;99.90;;;;;;5086050;28;20036;-72
2023/08/17 07:17:36;;;;;;;1999.90;999.90;;;17.90;99.90;;;;;;5088595;28;20044;-71
2023/08/17 07:20:03;;;;;;;1999.90;999.90;;;18.00;99.90;;;;;;5081755;28;20036;-71
2023/08/17 07:22:30;;;;;;;1999.90;999.90;;;18.10;99.90;;;;;;5089606;28;20032;-71
2023/08/17 07:24:56;;;;;;;1999.90;999.90;;;18.10;99.90;;;;;;5072149;28;20044;-70
2023/08/17 07:27:21;;;;;;;1999.90;999.90;;;18.20;99.90;;;;;;5083346;28;20040;-71
2023/08/17 07:29:47;;;;;;;1999.90;999.90;;;18.30;99.90;;;;;;5088400;28;20787;-70
2023/08/17 07:32:13;;;;;;;1999.90;999.90;;;18.30;99.90;;;;;;5088152;28;20530;-71
2023/08/17 07:34:38;;;;;;;1999.90;999.90;;;18.20;99.90;;;;;;5084161;28;20063;-71
2023/08/17 07:37:05;;;;;;;1999.90;999.90;;;18.20;99.90;;;;;;5089553;28;20050;-71
2023/08/17 07:39:31;;;;;;;1999.90;999.90;;;18.20;99.90;;;;;;5078858;28;20504;-70
2023/08/17 07:41:57;;;;;;;1999.90;999.90;;;18.30;99.90;;;;;;5087366;28;20054;-70
2023/08/17 07:44:23;;;;;;;1999.90;999.90;;;18.50;99.90;;;;;;5085064;28;20047;-70
2023/08/17 07:46:48;;;;;;;1999.90;999.90;;;18.70;99.90;;;;;;5082644;28;20396;-71
2023/08/17 07:49:14;;;;;;;1550.68;798.35;;;18.70;99.90;;;;;;5087965;28;20489;-71
2023/08/17 07:51:39;;;;;;;1999.90;999.90;;;18.60;99.90;;;;;;5089293;28;20127;-71
2023/08/17 07:54:05;;;;;;;1999.90;999.90;;;18.50;99.90;;;;;;5087420;28;20102;-71
2023/08/17 07:56:30;;;;;;;203.43;194.80;;;18.50;99.90;;;;;;5085839;28;20043;-70
2023/08/17 07:58:56;;;;;;;720.28;460.33;;;18.50;99.90;;;;;;5088233;28;20040;-71
2023/08/17 08:01:22;;;;;;;1999.90;999.90;;;18.40;99.90;;;;;;5082770;28;20040;-71
2023/08/17 08:03:47;;;;;;;1999.90;999.90;;;18.30;99.90;;;;;;5066613;28;20059;-70
2023/08/17 08:06:13;;;;;;;1999.90;999.90;;;18.20;99.90;;;;;;5089590;28;20032;-71
2023/08/17 08:08:40;;;;;;;1999.90;999.90;;;18.30;99.90;;;;;;5087465;28;20040;-70
2023/08/17 08:11:06;;;;;;;1576.13;822.63;;;18.40;99.90;;;;;;5088973;28;20040;-71
2023/08/17 08:13:31;;;;;;;1999.90;999.90;;;18.50;99.90;;;;;;5081293;28;20070;-71
2023/08/17 08:15:58;;;;;;;1999.90;999.90;;;18.50;99.90;;;;;;5098620;28;20048;-71
2023/08/17 08:18:24;;;;;;;1999.90;999.90;;;18.50;99.90;;;;;;5088832;28;20373;-71
2023/08/17 08:20:50;;;;;;;1999.90;999.90;;;18.60;99.90;;;;;;5080139;28;20066;-71
2023/08/17 08:23:16;;;;;;;1572.38;819.10;;;18.60;99.90;;;;;;5069036;28;20131;-71
2023/08/17 08:25:41;;;;;;;1999.90;999.90;;;18.60;99.90;;;;;;5085668;28;20047;-71
2023/08/17 08:28:08;;;;;;;1999.90;999.90;;;18.70;99.90;;;;;;5088230;28;20480;-71
2023/08/17 08:30:34;;;;;;;1999.90;999.90;;;18.70;99.90;;;;;;5088298;28;20063;-71
2023/08/17 08:32:59;;;;;;;1567.78;814.78;;;18.80;99.90;;;;;;5102421;28;20036;-71
2023/08/17 08:35:26;;;;;;;1999.90;999.90;;;18.90;99.90;;;;;;5097447;28;20054;-71
2023/08/17 08:37:51;;;;;;;668.28;411.02;;;18.90;99.90;;;;;;5086554;28;20086;-71
2023/08/17 08:40:17;;;;;;;1155.78;648.85;;;19.00;99.90;;;;;;5075303;28;20071;-71
2023/08/17 08:42:44;;;;;;;1172.43;664.58;;;19.10;99.90;;;;;;5082195;28;20428;-71
2023/08/17 08:45:10;;;;;;;304.70;290.75;;;19.10;99.90;;;;;;5086428;28;20044;-71
2023/08/17 08:47:43;;;;;;;382.48;364.38;;;19.20;99.90;;;;;;5085143;28;20514;-71
2023/08/17 08:50:15;;;;;;;420.20;400.10;;;19.30;99.90;;;;;;5084248;28;20122;-71
2023/08/17 08:52:46;;;;;;;388.42;370.20;;;19.30;99.90;;;;;;5086453;28;20050;-71
2023/08/17 08:55:17;;;;;;;319.58;305.25;;;19.50;99.90;;;;;;5086464;28;20098;-70
2023/08/17 08:57:43;;;;;;;373.40;355.95;;;19.60;99.90;;;;;;5068542;28;20040;-71
2023/08/17 09:00:11;;;;;;;322.33;307.92;;;19.70;99.90;;;;;;5081236;28;20062;-71
2023/08/17 09:02:37;;;;;;;257.15;246.40;;;19.80;99.90;;;;;;5064850;28;20697;-71
2023/08/17 09:05:03;;;;;;;215.73;206.52;;;20.00;99.90;;;;;;5074914;28;20105;-71
2023/08/17 09:07:34;;;;;;;199.98;191.52;;;20.00;99.90;;;;;;5090806;28;20075;-71
2023/08/17 09:09:59;;;;;;;197.82;189.32;;;20.10;99.90;;;;;;5099807;28;20109;-71
2023/08/17 09:12:25;;;;;;;168.15;161.00;;;20.00;99.90;;;;;;5080753;28;20084;-71
2023/08/17 09:14:51;;;;;;;248.50;238.15;;;19.90;99.90;;;;;;5086910;28;20062;-71
2023/08/17 09:17:28;;;;;;;257.88;246.93;;;19.90;99.90;;;;;;5084043;28;20407;-72
2023/08/17 09:19:54;;;;;;;219.07;209.40;;;20.10;99.90;;;;;;5066744;28;20535;-71
2023/08/17 09:22:45;;;;;;;229.63;219.95;;;20.30;99.90;;;;;;5090370;28;20101;-71
2023/08/17 09:25:21;;;;;;;105.47;100.90;;;20.70;99.90;;;;;;5095965;28;20091;-71
2023/08/17 09:27:47;;;;;;;114.00;109.20;;;21.30;99.90;;;;;;5093704;28;20411;-72
2023/08/17 09:30:12;;;;;;;132.50;126.60;;;21.80;99.90;;;;;;5073347;28;20031;-71
2023/08/17 09:32:38;;;;;;;67.82;64.80;;;22.30;99.90;;;;;;5090282;28;20175;-71
2023/08/17 09:35:05;;;;;;;218.57;209.30;;;22.60;99.90;;;;;;5077601;28;20047;-70
2023/08/17 09:37:31;;;;;;;138.43;132.55;;;22.60;99.90;;;;;;5087699;28;20036;-71
2023/08/17 09:39:57;;;;;;;60.50;57.70;;;22.60;99.90;;;;;;5093470;28;20037;-71
2023/08/17 09:42:25;;;;;;;89.30;85.25;;;22.40;99.90;;;;;;5078616;28;20044;-71
2023/08/17 09:44:51;;;;;;;141.10;134.98;;;22.10;99.90;;;;;;5080520;28;21459;-71
2023/08/17 09:47:17;;;;;;;56.33;53.63;;;21.90;99.90;;;;;;5072969;28;20063;-71
2023/08/17 09:49:49;;;;;;;46.85;44.45;;;22.00;99.90;;;;;;5087427;28;20051;-71
2023/08/17 09:52:15;;;;;;;62.60;59.70;;;22.00;99.90;;;;;;5085201;28;20052;-71
2023/08/17 09:54:42;;;;;;;98.00;93.25;;;21.70;99.90;;;;;;5081052;28;20054;-71
2023/08/17 09:57:09;;;;;;;104.40;99.63;;;21.50;99.90;;;;;;5086245;28;20028;-71
2023/08/17 09:59:34;;;;;;;66.68;63.58;;;21.10;99.90;;;;;;5077179;28;20530;-73
2023/08/17 10:02:01;;;;;;;54.58;52.00;;;20.90;99.90;;;;;;5089222;28;20119;-72
2023/08/17 10:04:29;;;;;;;83.65;79.70;;;20.70;99.90;;;;;;5086666;28;20056;-72
2023/08/17 10:06:59;;;;;;;140.30;134.05;;;20.60;99.90;;;;;;5078096;28;20052;-73
2023/08/17 10:09:31;;;;;;;139.55;133.18;;;20.50;99.90;;;;;;5091176;28;20430;-72
2023/08/17 10:12:00;;;;;;;112.18;107.32;;;20.40;99.90;;;;;;5086924;28;20048;-72
2023/08/17 10:14:41;;;;;;;183.43;175.68;;;20.40;99.90;;;;;;5078447;28;20048;-72
2023/08/17 10:17:11;;;;;;;171.05;163.63;;;20.50;99.90;;;;;;5086640;28;20146;-72
2023/08/17 10:19:58;;;;;;;197.85;189.20;;;20.60;99.90;;;;;;5086716;28;20065;-72
2023/08/17 10:22:27;;;;;;;220.65;210.60;;;20.80;99.90;;;;;;5050250;28;20458;-72
2023/08/17 10:24:54;;;;;;;180.13;172.13;;;21.00;99.90;;;;;;5080902;28;20404;-72
2023/08/17 10:27:21;;;;;;;133.93;127.82;;;21.10;99.90;;;;;;5082461;28;20044;-72
2023/08/17 10:29:49;;;;;;;153.77;147.15;;;21.10;99.90;;;;;;5081220;28;20059;-72
2023/08/17 10:32:15;;;;;;;190.48;181.95;;;21.10;99.90;;;;;;5086520;28;20189;-71
2023/08/17 10:34:41;;;;;;;143.98;137.75;;;21.00;99.90;;;;;;5105285;28;20043;-71
2023/08/17 10:37:07;;;;;;;143.15;136.82;;;21.00;99.90;;;;;;5087864;28;20573;-71
2023/08/17 10:39:34;;;;;;;122.68;117.13;;;21.00;99.90;;;;;;5089048;28;20513;-71
2023/08/17 10:42:01;;;;;;;125.82;120.22;;;20.90;99.90;;;;;;5081512;28;20044;-71
2023/08/17 10:44:46;;;;;;;241.90;231.00;;;20.90;99.90;;;;;;5087592;28;20079;-71
2023/08/17 10:47:31;;;;;;;157.13;149.88;;;20.90;99.90;;;;;;5088470;28;20043;-71
2023/08/17 10:50:06;;;;;;;157.68;150.63;;;20.90;99.90;;;;;;5062937;28;20051;-72
2023/08/17 10:52:33;;;;;;;222.93;212.75;;;20.80;99.90;;;;;;5081557;28;20040;-71
2023/08/17 10:55:01;;;;;;;188.65;180.18;;;20.90;99.90;;;;;;5081901;28;20039;-70
2023/08/17 10:57:32;;;;;;;197.48;188.30;;;21.00;99.90;;;;;;5071098;28;20044;-71
2023/08/17 11:00:08;;;;;;;124.25;118.82;;;21.20;99.90;;;;;;5085032;28;20112;-72
2023/08/17 11:02:34;;;;;;;170.20;162.35;;;21.30;99.90;;;;;;5081905;28;20147;-70
2023/08/17 11:05:01;;;;;;;190.80;182.20;;;21.30;99.90;;;;;;5086497;28;20798;-71
2023/08/17 11:07:30;;;;;;;159.93;152.55;;;21.40;99.90;;;;;;5078146;28;20058;-71
2023/08/17 11:09:57;;;;;;;117.13;111.93;;;21.40;99.90;;;;;;5083603;28;20722;-71
2023/08/17 11:12:26;;;;;;;87.93;84.05;;;21.40;99.90;;;;;;5079891;28;20470;-71
2023/08/17 11:14:52;;;;;;;93.35;89.03;;;21.50;99.90;;;;;;5092569;28;20127;-71
2023/08/17 11:17:20;;;;;;;101.53;96.90;;;21.80;99.90;;;;;;5086427;28;20556;-71
2023/08/17 11:19:46;;;;;;;86.65;82.75;;;22.10;99.90;;;;;;5083858;28;20071;-71
2023/08/17 11:22:12;;;;;;;50.00;47.42;;;22.10;99.90;;;;;;5076340;28;20140;-71
2023/08/17 11:24:40;;;;;;;68.53;65.28;;;21.90;99.90;;;;;;5099920;28;20063;-72
2023/08/17 11:27:06;;;;;;;65.38;62.38;;;21.80;99.90;;;;;;5088340;28;20035;-71
2023/08/17 11:29:33;;;;;;;60.33;57.38;;;21.70;99.90;;;;;;5086860;28;20040;-71
2023/08/17 11:31:58;;;;;;;85.85;81.88;;;21.60;99.90;;;;;;5087679;28;20047;-71
2023/08/17 11:34:24;;;;;;;67.18;64.03;;;21.60;99.90;;;;;;5099064;28;20044;-72
2023/08/17 11:36:50;;;;;;;81.50;77.50;;;21.70;99.90;;;;;;5088145;28;20040;-71
2023/08/17 11:39:15;;;;;;;73.45;69.80;;;21.70;99.90;;;;;;5067680;28;20557;-71
2023/08/17 11:41:41;;;;;;;56.55;53.65;;;21.80;99.90;;;;;;5085092;28;20040;-71
2023/08/17 11:44:07;;;;;;;57.45;54.67;;;21.80;99.90;;;;;;5079581;28;20118;-71
2023/08/17 11:46:32;;;;;;;83.65;79.95;;;21.80;99.90;;;;;;5061570;28;20036;-71
2023/08/17 11:49:01;;;;;;;72.60;69.38;;;21.80;99.90;;;;;;5070949;28;20785;-71
2023/08/17 11:51:31;;;;;;;90.30;86.18;;;21.80;99.90;;;;;;5089210;28;20040;-71
2023/08/17 11:54:00;;;;;;;69.60;66.43;;;21.80;99.90;;;;;;5082906;28;20775;-71
2023/08/17 11:56:26;;;;;;;108.10;103.45;;;21.80;99.90;;;;;;5089342;28;20101;-71
2023/08/17 11:58:51;;;;;;;87.80;83.75;;;21.80;99.90;;;;;;5095660;28;20032;-71
2023/08/17 12:01:17;;;;;;;122.00;116.43;;;21.80;99.90;;;;;;5104627;28;20399;-70